Standale, Michigan
Current Conditions -  °F | °C
As of 12:53 PM on Friday 24 Oct 2014 (Local Time) from KGRR Reporting Station
Scattered Clouds Scattered Clouds  
Wind Chill: 61°   Ceiling: Unl
Heat Index: 61°   Visibility: 9mi
Dew Point: 50°   Wind: 8mph
Humidity: 67%   Direction: 250°WSW
Pressure: 30.03"   Gusts: NA
Location:  42.9769°N, 85.7689°W
Report Text: KGRR 241653Z 25007KT 9SM FEW020 SCT043 16/10 A3003 RMK AO2 SLP171 T01610100
Loading
Personal Weather Stations






























Interactive Weather Map
Tropical Storm Tracking
New forecast layout! Learn more

10-Day Weather Forecast

Advertisements
Track Severe Weather on mobile